Time;durP1;ratioP1;P1;durP2;ratioP2;P2;SDS_P1;SDS_P2;PMS_P1;PMS_P2;Temp;Humidity;BMP_temperature;BMP_pressure;BME280_temperature;BME280_humidity;BME280_pressure;Samples;Min_cycle;Max_cycle;Signal;HPM_P1;HPM_P2
2023/10/22 00:02:07;;;;;;;3.05;1.52;;;;;;;13.73;84.92;99254.81;6100123;23;20061;-78
2023/10/22 00:04:33;;;;;;;6.80;2.08;;;;;;;13.59;85.41;99254.09;6100458;23;20033;-79
2023/10/22 00:07:01;;;;;;;4.20;2.35;;;;;;;13.58;85.73;99261.19;6100351;23;20200;-78
2023/10/22 00:09:28;;;;;;;6.03;2.20;;;;;;;13.56;85.64;99241.38;6099057;23;20026;-78
2023/10/22 00:11:54;;;;;;;5.47;1.90;;;;;;;13.58;85.60;99255.13;6099700;23;20038;-79
2023/10/22 00:14:21;;;;;;;3.67;1.88;;;;;;;13.61;85.50;99260.75;6099534;23;20094;-79
2023/10/22 00:16:48;;;;;;;3.20;1.48;;;;;;;13.59;85.50;99265.41;6099269;23;20053;-78
2023/10/22 00:19:14;;;;;;;5.10;2.20;;;;;;;13.54;85.83;99270.50;6099852;23;20042;-79
2023/10/22 00:21:41;;;;;;;5.95;2.28;;;;;;;13.50;86.10;99282.44;6101462;23;20054;-79
2023/10/22 00:24:10;;;;;;;7.55;2.10;;;;;;;13.54;86.19;99275.75;6100829;23;20030;-79
2023/10/22 00:26:36;;;;;;;4.65;1.73;;;;;;;13.52;86.55;99287.47;6100394;23;20459;-78
2023/10/22 00:29:03;;;;;;;4.10;1.98;;;;;;;13.47;86.34;99280.22;6099831;23;20067;-79
2023/10/22 00:31:30;;;;;;;6.75;2.10;;;;;;;13.51;86.31;99281.41;6100092;23;20463;-78
2023/10/22 00:33:57;;;;;;;7.25;2.33;;;;;;;13.52;86.36;99288.28;6098775;23;20336;-79
2023/10/22 00:36:24;;;;;;;4.25;1.85;;;;;;;13.54;86.38;99280.19;6099469;23;20029;-79
2023/10/22 00:38:51;;;;;;;6.05;1.83;;;;;;;13.55;86.22;99276.56;6098342;23;20029;-78
2023/10/22 00:41:19;;;;;;;5.20;2.10;;;;;;;13.49;86.73;99288.69;6098555;23;20491;-79
2023/10/22 00:43:46;;;;;;;7.85;3.00;;;;;;;13.51;86.92;99291.94;6098651;23;20133;-79
2023/10/22 00:46:18;;;;;;;7.75;2.00;;;;;;;13.53;87.16;99289.09;6099775;23;20076;-78
2023/10/22 00:48:44;;;;;;;3.57;1.73;;;;;;;13.45;87.32;99271.72;6099519;23;20090;-79
2023/10/22 00:51:12;;;;;;;4.57;1.90;;;;;;;13.46;87.79;99289.13;6099494;23;20030;-79
2023/10/22 00:53:39;;;;;;;5.68;1.73;;;;;;;13.43;87.90;99289.53;6100174;23;20479;-78
2023/10/22 00:56:06;;;;;;;4.32;1.88;;;;;;;13.41;88.14;99285.50;6100375;23;20050;-79
2023/10/22 00:58:35;;;;;;;5.15;1.83;;;;;;;13.41;88.32;99288.94;6100948;23;20018;-78
2023/10/22 01:01:06;;;;;;;4.00;1.95;;;;;;;13.41;88.33;99296.81;6103113;23;20507;-78
2023/10/22 01:03:33;;;;;;;7.07;2.78;;;;;;;13.41;88.46;99294.19;6099924;23;20368;-79
2023/10/22 01:06:02;;;;;;;4.03;1.90;;;;;;;13.47;88.65;99303.88;6099315;23;20077;-78
2023/10/22 01:08:32;;;;;;;4.88;2.10;;;;;;;13.44;88.60;99296.41;6098386;23;20018;-79
2023/10/22 01:11:05;;;;;;;5.80;1.95;;;;;;;13.40;88.75;99307.53;6097693;23;20057;-78
2023/10/22 01:13:31;;;;;;;;;;;;;;;13.49;88.79;99311.53;6100653;23;20022;-78
2023/10/22 01:15:59;;;;;;;7.43;1.88;;;;;;;13.43;88.87;99312.38;6104257;23;19917;-78
2023/10/22 01:18:26;;;;;;;6.00;2.28;;;;;;;13.46;88.99;99319.84;6098962;23;20025;-79
2023/10/22 01:20:53;;;;;;;4.25;1.88;;;;;;;13.47;88.74;99308.31;6100573;23;20026;-79
2023/10/22 01:23:21;;;;;;;5.22;1.77;;;;;;;13.48;88.96;99323.06;6099524;23;20411;-80
2023/10/22 01:25:48;;;;;;;3.40;1.55;;;;;;;13.46;88.97;99325.91;6100782;23;20026;-80
2023/10/22 01:28:15;;;;;;;4.00;1.70;;;;;;;13.44;89.02;99327.94;6099916;23;20408;-80
2023/10/22 01:30:41;;;;;;;5.22;1.83;;;;;;;13.42;89.28;99334.41;6100263;23;20058;-78
2023/10/22 01:33:08;;;;;;;4.00;1.88;;;;;;;13.53;89.00;99326.69;6100213;23;20058;-79
2023/10/22 01:35:35;;;;;;;6.75;2.10;;;;;;;13.49;89.23;99330.75;6101314;23;20046;-81
2023/10/22 01:38:01;;;;;;;3.50;1.90;;;;;;;13.41;89.47;99344.09;6101020;23;20042;-79
2023/10/22 01:40:31;;;;;;;4.25;1.63;;;;;;;13.38;89.96;99349.75;6100494;23;20026;-80
2023/10/22 01:42:58;;;;;;;3.88;1.70;;;;;;;13.38;90.24;99355.03;6100926;23;20412;-81
2023/10/22 01:45:26;;;;;;;3.70;2.33;;;;;;;13.30;91.35;99357.84;6101575;23;20065;-79
2023/10/22 01:47:53;;;;;;;4.43;1.50;;;;;;;13.34;91.60;99364.31;6101753;23;20029;-79
2023/10/22 01:50:20;;;;;;;4.22;1.48;;;;;;;13.31;92.08;99359.47;6099465;23;20114;-78
2023/10/22 01:52:47;;;;;;;6.75;1.70;;;;;;;13.28;92.96;99352.81;6101394;23;20046;-79
2023/10/22 01:55:13;;;;;;;2.67;1.25;;;;;;;13.24;93.22;99362.09;6101014;23;20101;-80
2023/10/22 01:57:41;;;;;;;4.15;1.88;;;;;;;13.22;93.61;99371.22;6100784;23;20085;-81
2023/10/22 02:00:12;;;;;;;2.15;1.08;;;;;;;13.18;93.66;99370.81;6100758;23;20023;-80
2023/10/22 02:02:39;;;;;;;3.47;1.42;;;;;;;13.13;93.76;99361.91;6101923;23;20057;-78
2023/10/22 02:05:07;;;;;;;4.88;1.85;;;;;;;13.15;93.89;99365.13;6097043;23;20053;-78
2023/10/22 02:07:34;;;;;;;3.00;1.52;;;;;;;13.11;93.64;99363.94;6096478;23;20023;-78
2023/10/22 02:10:01;;;;;;;3.47;1.48;;;;;;;13.12;94.75;99373.41;6097529;23;20072;-78
2023/10/22 02:12:28;;;;;;;4.45;1.58;;;;;;;13.12;95.15;99360.28;6099455;23;20066;-79
2023/10/22 02:41:05;;;;;;;2.15;1.02;;;;;;;13.09;95.78;99395.66;6081650;23;20034;-79
2023/10/22 02:43:55;;;;;;;3.15;1.67;;;;;;;13.08;95.78;99382.72;6078896;23;20022;-78
2023/10/22 02:46:21;;;;;;;2.47;1.20;;;;;;;13.17;95.86;99397.28;6081390;23;20372;-80
2023/10/22 02:48:59;;;;;;;3.42;1.15;;;;;;;13.03;95.95;99393.81;6081308;23;20079;-81
2023/10/22 02:51:33;;;;;;;2.67;1.27;;;;;;;13.06;96.05;99388.16;6081326;23;20078;-78
2023/10/22 02:54:04;;;;;;;4.13;1.38;;;;;;;13.10;95.87;99410.38;6079857;23;20472;-79
2023/10/22 02:56:39;;;;;;;2.77;1.30;;;;;;;13.06;96.05;99403.94;6079727;23;20027;-76
2023/10/22 02:59:25;;;;;;;3.92;1.13;;;;;;;13.04;96.30;99415.63;6079004;23;20267;-79
2023/10/22 03:02:03;;;;;;;2.10;1.10;;;;;;;13.00;96.41;99409.16;6080508;23;20035;-79
2023/10/22 03:04:57;;;;;;;1.27;0.70;;;;;;;13.08;96.55;99422.09;6078538;23;20037;-79
2023/10/22 03:07:32;;;;;;;3.17;1.15;;;;;;;13.19;96.36;99424.16;6078398;23;20069;-79
2023/10/22 03:09:59;;;;;;;1.23;0.68;;;;;;;13.17;96.30;99431.44;6080809;23;20023;-79
2023/10/22 03:12:29;;;;;;;2.80;0.88;;;;;;;13.16;96.30;99428.00;6078927;23;20031;-79
2023/10/22 03:15:07;;;;;;;1.50;0.73;;;;;;;13.23;96.21;99439.28;6078743;23;20078;-80
2023/10/22 03:17:40;;;;;;;1.58;1.10;;;;;;;13.19;96.18;99430.22;6079237;23;20029;-80
2023/10/22 03:20:10;;;;;;;3.35;0.80;;;;;;;13.21;96.44;99445.78;6078897;23;20070;-80
2023/10/22 03:22:44;;;;;;;1.65;0.73;;;;;;;13.11;96.26;99432.22;6079323;23;20026;-80
2023/10/22 04:03:08;;;;;;;0.40;0.40;;;;;;;13.16;98.92;99503.38;5749588;24;20032;-81
2023/10/22 04:29:46;;;;;;;0.45;0.45;;;;;;;12.90;100.00;99539.03;5735929;24;20039;-80
2023/10/22 04:32:19;;;;;;;0.85;0.50;;;;;;;12.88;100.00;99533.16;5772002;24;20068;-80
2023/10/22 04:35:16;;;;;;;0.20;0.20;;;;;;;12.88;100.00;99538.41;5828993;24;20061;-80
2023/10/22 04:41:18;;;;;;;0.70;0.40;;;;;;;12.84;100.00;99546.88;5870767;24;20033;-79
2023/10/22 04:58:07;;;;;;;0.80;0.30;;;;;;;12.85;100.00;99575.56;5846731;24;20064;-79
2023/10/22 05:23:33;;;;;;;0.38;0.30;;;;;;;12.78;100.00;99615.91;5649516;24;20059;-80
2023/10/22 05:26:25;;;;;;;0.35;0.20;;;;;;;12.91;100.00;99636.97;5853738;24;20034;-80
2023/10/22 05:32:55;;;;;;;0.50;0.40;;;;;;;12.81;100.00;99620.75;5851696;24;20151;-81
2023/10/22 05:35:35;;;;;;;0.35;0.20;;;;;;;12.95;100.00;99657.41;5845723;24;20034;-80
2023/10/22 05:38:23;;;;;;;1.95;0.45;;;;;;;12.93;100.00;99683.03;5899951;24;20069;-79
2023/10/22 05:41:25;;;;;;;0.28;0.28;;;;;;;12.73;100.00;99671.63;5909272;24;20062;-82
2023/10/22 05:43:58;;;;;;;2.63;1.38;;;;;;;12.29;100.00;99687.66;5908555;24;20077;-81
2023/10/22 05:46:25;;;;;;;2.55;1.55;;;;;;;11.99;100.00;99715.84;5908094;24;20062;-81
2023/10/22 05:48:52;;;;;;;2.53;1.55;;;;;;;11.76;100.00;99718.63;5939857;23;20031;-82
2023/10/22 05:51:19;;;;;;;2.33;1.08;;;;;;;11.53;100.00;99716.16;6048984;23;20057;-81
2023/10/22 05:53:47;;;;;;;2.75;1.35;;;;;;;11.50;100.00;99736.66;6047967;23;20079;-79
2023/10/22 05:56:15;;;;;;;1.13;1.02;;;;;;;11.33;100.00;99751.78;6046385;23;20083;-80
2023/10/22 05:58:45;;;;;;;4.35;1.58;;;;;;;11.38;100.00;99749.41;6045155;23;20066;-80
2023/10/22 06:01:23;;;;;;;1.92;1.00;;;;;;;11.37;100.00;99763.50;6047539;23;20020;-79
2023/10/22 06:10:58;;;;;;;1.23;1.10;;;;;;;11.25;100.00;99754.50;5965493;23;20475;-80
2023/10/22 06:13:26;;;;;;;2.20;1.27;;;;;;;11.38;100.00;99762.50;6047470;23;20082;-81
2023/10/22 06:15:57;;;;;;;4.70;1.27;;;;;;;11.39;100.00;99777.22;6047191;23;20050;-81
2023/10/22 06:21:59;;;;;;;2.63;1.23;;;;;;;11.29;100.00;99772.28;5992315;24;20080;-83
2023/10/22 06:27:55;;;;;;;1.50;1.13;;;;;;;11.38;100.00;99770.38;5877198;24;20072;-84
2023/10/22 06:30:28;;;;;;;1.42;1.13;;;;;;;11.40;100.00;99755.28;5876766;24;20041;-82
2023/10/22 06:39:15;;;;;;;1.98;1.17;;;;;;;11.54;100.00;99787.72;6058054;23;20034;-81
2023/10/22 06:44:46;;;;;;;4.05;1.95;;;;;;;11.79;100.00;99802.16;6078279;23;20027;-80
2023/10/22 06:47:46;;;;;;;5.05;3.85;;;;;;;11.87;100.00;99806.47;6080440;23;20023;-80
2023/10/22 06:53:12;;;;;;;5.60;2.70;;;;;;;11.80;100.00;99802.97;6016618;23;20034;-80
2023/10/22 07:05:27;;;;;;;5.22;2.70;;;;;;;11.78;100.00;99826.75;6066317;23;20029;-81
2023/10/22 07:08:30;;;;;;;3.67;2.60;;;;;;;11.82;100.00;99832.41;6108173;23;20018;-82
2023/10/22 07:11:23;;;;;;;3.28;2.00;;;;;;;11.89;100.00;99838.56;6103780;23;20031;-80
2023/10/22 07:14:13;;;;;;;;;;;;;;;;;;;;;
2023/10/22 07:30:52;;;;;;;3.97;2.22;;;;;;;12.09;100.00;99873.69;5899757;24;20028;-79
2023/10/22 07:33:50;;;;;;;6.80;4.32;;;;;;;12.18;100.00;99867.34;5907497;24;20043;-80
2023/10/22 08:12:35;;;;;;;3.15;2.28;;;;;;;12.06;100.00;99928.31;5851337;24;20621;-79
2023/10/22 08:22:25;;;;;;;4.22;1.95;;;;;;;12.10;100.00;99940.88;6089369;23;20050;-82
2023/10/22 08:24:57;;;;;;;2.45;1.98;;;;;;;12.13;100.00;99937.91;6101664;23;20023;-79
2023/10/22 08:27:39;;;;;;;2.58;2.28;;;;;;;12.24;100.00;99944.50;6100846;23;20030;-82
2023/10/22 08:30:23;;;;;;;2.35;1.98;;;;;;;12.38;100.00;99969.06;6103179;23;20037;-81
2023/10/22 08:39:30;;;;;;;;;;;;;;;;;;;;;
2023/10/22 08:45:51;;;;;;;;;;;;;;;;;;;;;
2023/10/22 08:48:31;;;;;;;;;;;;;;;;;;;;;
2023/10/22 08:51:37;;;;;;;1.75;1.65;;;;;;;12.57;100.00;99987.66;6104960;23;20351;-80
2023/10/22 08:54:29;;;;;;;3.50;1.77;;;;;;;12.42;100.00;99972.94;6013591;23;20024;-81
2023/10/22 08:57:18;;;;;;;3.78;2.20;;;;;;;12.66;100.00;99993.63;5994244;23;20028;-81
2023/10/22 09:03:18;;;;;;;2.95;2.03;;;;;;;12.76;100.00;99994.13;6100053;23;20032;-81
2023/10/22 09:09:38;;;;;;;4.35;1.95;;;;;;;12.94;100.00;100015.53;5955662;23;20039;-80
2023/10/22 09:12:14;;;;;;;2.67;1.75;;;;;;;12.89;100.00;100010.03;6100990;23;20089;-81
2023/10/22 09:14:56;;;;;;;2.10;1.73;;;;;;;12.68;100.00;100017.88;6102041;23;20402;-81
2023/10/22 09:21:09;;;;;;;3.60;2.05;;;;;;;12.83;100.00;100012.56;6016478;23;20060;-79
2023/10/22 09:24:12;;;;;;;4.05;2.53;;;;;;;12.70;100.00;100008.00;6012001;23;20024;-80
2023/10/22 09:29:52;;;;;;;2.80;2.45;;;;;;;12.86;100.00;100033.22;6101993;23;20026;-81
2023/10/22 09:32:23;;;;;;;4.03;2.45;;;;;;;12.80;100.00;100028.69;6101260;23;20018;-81
2023/10/22 09:35:05;;;;;;;5.78;3.55;;;;;;;12.87;100.00;100024.34;6101067;23;20038;-81
2023/10/22 09:43:35;;;;;;;3.42;3.10;;;;;;;12.95;100.00;100035.53;6098702;23;20026;-81
2023/10/22 09:46:39;;;;;;;3.65;2.53;;;;;;;12.87;100.00;100019.91;6101696;23;20026;-80
2023/10/22 09:49:56;;;;;;;6.47;2.70;;;;;;;13.02;100.00;100026.91;6013489;23;20030;-79
2023/10/22 09:59:52;;;;;;;2.95;2.38;;;;;;;12.92;100.00;100050.84;6019552;23;20035;-80
2023/10/22 10:06:24;;;;;;;4.43;2.20;;;;;;;12.89;100.00;100049.41;6039576;23;20067;-81
2023/10/22 10:12:59;;;;;;;3.40;2.35;;;;;;;12.85;100.00;100073.59;6073807;23;20022;-80
2023/10/22 10:16:09;;;;;;;4.30;2.00;;;;;;;12.70;100.00;100060.50;6102575;23;20475;-81
2023/10/22 10:25:34;;;;;;;;;;;;;;;12.92;100.00;100079.72;6101402;23;20378;-79
2023/10/22 10:28:02;;;;;;;3.47;2.20;;;;;;;12.65;100.00;100054.19;6100181;23;20115;-79
2023/10/22 10:30:29;;;;;;;3.72;2.42;;;;;;;12.90;100.00;100079.09;6101399;23;20022;-80
2023/10/22 10:32:57;;;;;;;2.35;1.75;;;;;;;12.79;100.00;100080.38;6102622;23;20026;-81
2023/10/22 10:35:25;;;;;;;3.15;2.00;;;;;;;12.78;100.00;100077.94;6102161;23;20030;-79
2023/10/22 10:38:22;;;;;;;4.88;2.33;;;;;;;12.88;100.00;100100.28;6101734;23;20027;-80
2023/10/22 10:40:56;;;;;;;2.92;2.28;;;;;;;12.73;100.00;100077.72;6036110;23;20463;-79
2023/10/22 10:43:58;;;;;;;4.97;2.03;;;;;;;12.76;100.00;100096.50;6102310;23;20050;-80
2023/10/22 10:46:26;;;;;;;2.63;2.25;;;;;;;12.83;100.00;100083.47;6097111;23;20037;-80
2023/10/22 10:48:57;;;;;;;6.78;2.70;;;;;;;12.89;100.00;100095.84;6101993;23;20022;-79
2023/10/22 10:51:25;;;;;;;2.70;2.28;;;;;;;12.74;100.00;100095.91;6102064;23;20018;-81
2023/10/22 10:54:18;;;;;;;3.95;2.30;;;;;;;12.93;100.00;100115.50;6101351;23;20026;-79
2023/10/22 10:56:48;;;;;;;6.95;2.58;;;;;;;12.93;100.00;100102.38;6102533;23;20097;-79
2023/10/22 10:59:26;;;;;;;3.83;2.55;;;;;;;13.00;100.00;100110.34;6102258;23;20030;-77
2023/10/22 11:02:01;;;;;;;3.45;2.28;;;;;;;12.99;100.00;100116.59;6102254;23;20098;-79
2023/10/22 11:04:29;;;;;;;3.47;2.05;;;;;;;12.93;100.00;100118.94;6102187;23;20030;-78
2023/10/22 11:07:02;;;;;;;3.38;1.92;;;;;;;12.95;100.00;100110.88;6102077;23;20053;-80
2023/10/22 11:09:29;;;;;;;3.20;1.75;;;;;;;13.13;100.00;100113.94;6101557;23;20026;-79
2023/10/22 11:12:02;;;;;;;2.22;1.40;;;;;;;13.10;100.00;100124.00;6100956;23;20065;-82
2023/10/22 11:14:29;;;;;;;2.50;1.90;;;;;;;13.01;100.00;100115.41;6101531;23;20024;-81
2023/10/22 11:16:57;;;;;;;3.38;1.60;;;;;;;13.01;100.00;100117.22;6101724;23;20065;-79
2023/10/22 11:19:24;;;;;;;2.00;1.35;;;;;;;13.10;100.00;100118.75;6101156;23;20068;-79
2023/10/22 11:21:54;;;;;;;2.65;1.75;;;;;;;13.18;100.00;100116.84;6100969;23;20023;-80
2023/10/22 11:24:22;;;;;;;3.28;1.60;;;;;;;13.10;100.00;100124.81;6101390;23;20093;-80
2023/10/22 11:26:50;;;;;;;2.67;1.50;;;;;;;13.09;100.00;100117.13;6101187;23;20050;-79
2023/10/22 11:29:17;;;;;;;3.05;1.70;;;;;;;13.30;100.00;100122.41;6101471;23;20054;-78
2023/10/22 11:31:54;;;;;;;2.90;1.55;;;;;;;13.28;100.00;100119.16;6104641;23;20022;-80
2023/10/22 11:34:21;;;;;;;2.15;1.83;;;;;;;13.45;100.00;100119.75;6108908;23;20030;-79
2023/10/22 11:36:48;;;;;;;4.15;2.05;;;;;;;13.53;100.00;100114.38;6105263;23;20457;-79
2023/10/22 11:39:18;;;;;;;3.40;2.25;;;;;;;13.58;100.00;100118.06;6102716;23;20050;-79
2023/10/22 11:41:44;;;;;;;1.95;1.55;;;;;;;13.78;100.00;100112.16;6101270;23;20355;-80
2023/10/22 11:44:30;;;;;;;5.22;1.83;;;;;;;13.65;100.00;100109.44;6101723;23;20037;-80
2023/10/22 11:46:57;;;;;;;2.03;1.45;;;;;;;13.91;100.00;100123.59;6103517;23;20076;-81
2023/10/22 11:49:24;;;;;;;2.65;1.45;;;;;;;13.97;100.00;100122.03;6102295;23;20033;-79
2023/10/22 11:51:51;;;;;;;3.95;2.88;;;;;;;13.85;100.00;100113.84;6101831;23;20478;-79
2023/10/22 11:54:19;;;;;;;3.67;2.13;;;;;;;14.09;100.00;100109.19;6101802;23;20067;-80
2023/10/22 11:56:47;;;;;;;2.97;1.80;;;;;;;14.11;100.00;100121.16;6101937;23;20018;-80
2023/10/22 11:59:13;;;;;;;3.60;1.52;;;;;;;14.31;100.00;100125.72;6101609;23;20436;-80
2023/10/22 12:01:40;;;;;;;4.35;1.70;;;;;;;14.16;100.00;100110.88;6102021;23;20022;-80
2023/10/22 12:04:07;;;;;;;3.42;1.52;;;;;;;14.36;100.00;100120.69;6102717;23;20026;-79
2023/10/22 12:06:34;;;;;;;2.70;1.65;;;;;;;14.61;100.00;100116.63;6105052;23;20049;-82
2023/10/22 12:09:00;;;;;;;2.30;2.10;;;;;;;14.64;100.00;100116.25;6104969;23;20032;-80
2023/10/22 12:11:29;;;;;;;2.85;2.17;;;;;;;14.56;100.00;100126.94;6102064;23;20030;-79
2023/10/22 12:13:55;;;;;;;3.78;2.00;;;;;;;14.53;100.00;100120.25;6101835;23;20027;-79
2023/10/22 12:16:22;;;;;;;3.20;2.40;;;;;;;14.63;100.00;100127.78;6102788;23;20026;-80
2023/10/22 12:18:49;;;;;;;2.67;1.95;;;;;;;14.63;100.00;100129.59;6101869;23;20125;-79
2023/10/22 12:21:16;;;;;;;3.25;2.22;;;;;;;14.62;100.00;100126.16;6101455;23;20034;-80
2023/10/22 12:23:42;;;;;;;5.43;3.58;;;;;;;14.43;100.00;100132.13;6102517;23;20418;-80
2023/10/22 12:26:09;;;;;;;4.88;3.40;;;;;;;14.27;100.00;100134.00;6102051;23;20050;-79
2023/10/22 12:28:37;;;;;;;5.85;3.38;;;;;;;14.35;100.00;100151.47;6102090;23;20022;-79
2023/10/22 12:31:13;;;;;;;9.15;5.50;;;;;;;14.43;100.00;100153.16;6102387;23;20046;-79
2023/10/22 12:33:39;;;;;;;9.27;4.40;;;;;;;14.52;100.00;100152.03;6102158;23;20037;-80
2023/10/22 12:36:06;;;;;;;6.50;4.57;;;;;;;14.51;100.00;100155.66;6102620;23;20030;-78
2023/10/22 12:38:33;;;;;;;8.38;5.28;;;;;;;14.42;100.00;100143.66;6102447;23;20033;-80
2023/10/22 12:41:00;;;;;;;8.15;4.97;;;;;;;14.42;100.00;100149.72;6107744;23;20391;-79
2023/10/22 12:43:26;;;;;;;8.13;5.05;;;;;;;14.55;100.00;100162.16;6103058;23;20029;-80
2023/10/22 12:45:54;;;;;;;5.43;4.00;;;;;;;14.59;100.00;100158.16;6103515;23;20463;-80
2023/10/22 12:48:22;;;;;;;7.70;4.95;;;;;;;14.56;100.00;100153.25;6102788;23;20026;-81
2023/10/22 12:50:49;;;;;;;10.93;7.30;;;;;;;14.45;100.00;100165.13;6103343;23;20068;-81
2023/10/22 12:53:16;;;;;;;9.05;6.28;;;;;;;14.48;100.00;100171.84;6102357;23;20022;-80
2023/10/22 12:55:42;;;;;;;7.70;4.90;;;;;;;14.44;100.00;100174.03;6103623;23;20046;-80
2023/10/22 12:58:09;;;;;;;10.52;4.40;;;;;;;14.35;100.00;100171.72;6103718;23;20359;-81
2023/10/22 13:00:39;;;;;;;6.65;5.10;;;;;;;14.32;100.00;100172.09;6103077;23;20026;-80
2023/10/22 13:03:07;;;;;;;6.53;4.80;;;;;;;14.08;100.00;100174.16;6103581;23;20057;-81
2023/10/22 13:05:35;;;;;;;5.43;4.40;;;;;;;14.30;100.00;100177.53;6103242;23;20022;-81
2023/10/22 13:08:03;;;;;;;5.13;4.30;;;;;;;14.39;100.00;100180.84;6103019;23;20030;-80
2023/10/22 13:10:32;;;;;;;6.03;4.78;;;;;;;14.41;100.00;100187.59;6102994;23;20026;-81
2023/10/22 13:12:58;;;;;;;7.05;5.10;;;;;;;14.29;100.00;100179.34;6105519;23;20320;-81
2023/10/22 13:15:25;;;;;;;7.57;5.95;;;;;;;14.52;100.00;100192.31;6104645;23;20026;-81
2023/10/22 13:17:52;;;;;;;7.97;5.85;;;;;;;14.58;100.00;100182.84;6105208;23;20037;-80
2023/10/22 13:20:20;;;;;;;7.10;5.90;;;;;;;14.85;100.00;100194.34;6103631;23;20083;-81
2023/10/22 13:22:47;;;;;;;6.70;5.50;;;;;;;14.69;100.00;100190.19;6103766;23;20026;-81
2023/10/22 13:25:14;;;;;;;9.90;6.38;;;;;;;14.70;100.00;100185.72;6104192;23;20093;-81
2023/10/22 13:27:42;;;;;;;9.18;5.85;;;;;;;14.88;100.00;100193.94;6105006;23;20062;-81
2023/10/22 13:30:09;;;;;;;8.05;7.25;;;;;;;14.86;100.00;100182.78;6104494;23;20042;-81
2023/10/22 13:32:38;;;;;;;8.90;6.85;;;;;;;14.80;100.00;100194.91;6103858;23;20030;-81
2023/10/22 13:35:06;;;;;;;13.98;8.63;;;;;;;14.91;100.00;100194.38;6103540;23;20424;-81
2023/10/22 13:37:35;;;;;;;9.32;6.50;;;;;;;14.90;100.00;100187.47;6104334;23;20029;-81
2023/10/22 13:40:03;;;;;;;8.63;5.60;;;;;;;14.77;100.00;100186.59;6103610;23;20022;-80
2023/10/22 13:42:29;;;;;;;7.82;5.70;;;;;;;14.51;100.00;100187.25;6104244;23;20026;-80
2023/10/22 13:44:56;;;;;;;6.63;5.10;;;;;;;14.56;100.00;100192.75;6105175;23;20023;-81
2023/10/22 13:47:23;;;;;;;7.25;5.30;;;;;;;14.46;100.00;100182.56;6104325;23;20026;-81
2023/10/22 13:49:50;;;;;;;7.47;5.15;;;;;;;14.84;100.00;100188.25;6104642;23;20057;-81
2023/10/22 13:52:16;;;;;;;5.60;4.82;;;;;;;14.89;100.00;100188.50;6104458;23;20026;-81
2023/10/22 13:54:44;;;;;;;6.60;5.20;;;;;;;14.78;100.00;100189.03;6105388;23;20026;-81
2023/10/22 13:57:11;;;;;;;6.38;5.07;;;;;;;14.73;100.00;100193.25;6104733;23;20050;-80
2023/10/22 13:59:37;;;;;;;9.02;6.60;;;;;;;14.80;100.00;100210.72;6102232;23;20483;-80
2023/10/22 14:02:04;;;;;;;6.88;5.20;;;;;;;14.60;100.00;100207.16;6102435;23;20030;-79
2023/10/22 14:04:31;;;;;;;6.78;5.65;;;;;;;14.48;100.00;100214.78;6102745;23;20029;-80
2023/10/22 14:06:57;;;;;;;7.60;6.10;;;;;;;14.54;100.00;100226.34;6104401;23;20045;-80
2023/10/22 14:09:26;;;;;;;8.98;6.95;;;;;;;14.59;100.00;100231.88;6104230;23;20026;-79
2023/10/22 14:11:54;;;;;;;7.72;6.53;;;;;;;14.57;100.00;100244.41;6106370;23;20464;-80
2023/10/22 14:14:20;;;;;;;9.57;6.53;;;;;;;14.46;100.00;100250.19;6109007;23;20037;-78
2023/10/22 14:16:47;;;;;;;8.05;6.63;;;;;;;14.49;100.00;100248.00;6107182;23;20089;-78
2023/10/22 14:19:14;;;;;;;8.50;7.60;;;;;;;14.43;100.00;100250.56;6104716;23;20027;-80
2023/10/22 14:21:54;;;;;;;9.63;7.10;;;;;;;14.54;100.00;100248.25;6099415;23;20041;-78
2023/10/22 14:24:23;;;;;;;10.65;8.02;;;;;;;14.50;100.00;100225.13;6095449;23;20045;-78
2023/10/22 14:27:07;;;;;;;9.10;7.72;;;;;;;14.74;100.00;100223.84;6096078;23;20022;-78
2023/10/22 14:29:41;;;;;;;7.88;6.45;;;;;;;14.62;100.00;100226.22;6097597;23;20029;-78
2023/10/22 14:32:20;;;;;;;9.70;6.60;;;;;;;14.83;100.00;100249.03;6097952;23;20082;-79
2023/10/22 14:34:46;;;;;;;11.00;8.55;;;;;;;14.72;100.00;100253.00;6096348;23;20026;-79
2023/10/22 14:37:16;;;;;;;8.43;7.53;;;;;;;14.53;100.00;100248.44;6097054;23;20089;-79
2023/10/22 14:39:44;;;;;;;7.95;6.80;;;;;;;14.78;100.00;100246.97;6096884;23;20312;-79
2023/10/22 14:42:12;;;;;;;11.57;6.88;;;;;;;14.69;100.00;100242.03;6097621;23;20077;-79
2023/10/22 14:44:45;;;;;;;5.93;5.32;;;;;;;14.82;100.00;100257.94;6098289;23;20052;-79
2023/10/22 14:50:20;;;;;;;6.78;5.90;;;;;;;14.65;100.00;100254.78;6094958;23;20367;-79
2023/10/22 14:52:47;;;;;;;6.65;5.90;;;;;;;14.62;100.00;100268.34;6099851;23;20062;-79
2023/10/22 14:55:17;;;;;;;7.15;6.10;;;;;;;14.32;100.00;100235.25;6100592;23;20045;-79
2023/10/22 14:58:04;;;;;;;9.23;6.90;;;;;;;14.33;100.00;100257.94;6099558;23;20494;-79
2023/10/22 15:00:31;;;;;;;8.23;7.20;;;;;;;14.46;100.00;100277.31;6106171;23;20023;-80
2023/10/22 15:03:11;;;;;;;8.75;7.63;;;;;;;14.22;100.00;100249.53;6102848;23;20081;-80
2023/10/22 15:05:46;;;;;;;9.57;7.85;;;;;;;14.46;100.00;100265.97;6102934;23;20089;-80
2023/10/22 15:08:13;;;;;;;8.52;7.38;;;;;;;14.35;100.00;100256.75;6103686;23;20112;-80
2023/10/22 15:10:47;;;;;;;8.93;6.68;;;;;;;14.22;100.00;100260.06;6103018;23;20026;-80
2023/10/22 15:13:24;;;;;;;8.57;7.68;;;;;;;14.00;100.00;100241.84;6101712;23;20029;-80
2023/10/22 15:15:51;;;;;;;9.18;7.80;;;;;;;14.00;100.00;100253.19;6100836;23;20098;-80
2023/10/22 15:18:20;;;;;;;9.68;8.38;;;;;;;13.99;100.00;100250.75;6100387;23;20018;-79
2023/10/22 15:21:08;;;;;;;9.43;8.38;;;;;;;13.97;100.00;100258.00;6100394;23;20028;-80
2023/10/22 15:23:36;;;;;;;9.13;7.97;;;;;;;13.86;100.00;100251.41;6105502;23;20077;-80
2023/10/22 15:26:07;;;;;;;12.57;8.43;;;;;;;13.78;100.00;100243.63;6103333;23;20041;-80
2023/10/22 15:28:50;;;;;;;9.20;8.20;;;;;;;13.83;100.00;100254.41;6108415;23;20026;-80
2023/10/22 15:31:18;;;;;;;9.23;7.80;;;;;;;14.00;100.00;100292.66;6103987;23;20037;-79
2023/10/22 15:33:53;;;;;;;9.68;7.57;;;;;;;14.07;100.00;100280.38;6103734;23;20034;-79
2023/10/22 15:36:57;;;;;;;9.70;8.07;;;;;;;14.04;100.00;100285.19;6100628;23;20026;-80
2023/10/22 15:40:04;;;;;;;11.50;9.50;;;;;;;13.84;100.00;100279.72;6101735;23;20026;-80
2023/10/22 15:42:39;;;;;;;9.68;8.68;;;;;;;13.73;100.00;100262.59;6103197;23;20057;-80
2023/10/22 15:45:10;;;;;;;10.38;8.38;;;;;;;13.90;100.00;100298.22;6102771;23;20053;-79
2023/10/22 15:47:54;;;;;;;11.70;9.18;;;;;;;13.82;100.00;100293.06;6102209;23;20104;-81
2023/10/22 15:50:35;;;;;;;11.23;9.75;;;;;;;13.84;100.00;100303.38;6102404;23;20041;-79
2023/10/22 15:53:11;;;;;;;13.23;10.55;;;;;;;13.72;100.00;100297.78;6099651;23;20034;-80
2023/10/22 15:58:52;;;;;;;13.25;11.15;;;;;;;13.70;100.00;100302.44;6084688;23;20022;-80
2023/10/22 16:04:08;;;;;;;13.80;11.32;;;;;;;13.60;100.00;100310.59;6097166;23;20050;-79
2023/10/22 16:06:37;;;;;;;12.05;10.73;;;;;;;13.75;100.00;100322.91;6099886;23;20034;-80
2023/10/22 16:09:09;;;;;;;11.70;9.55;;;;;;;13.55;100.00;100294.56;6099577;23;20400;-79
2023/10/22 16:11:41;;;;;;;10.95;8.90;;;;;;;13.83;100.00;100317.53;6099765;23;20023;-79
2023/10/22 16:14:10;;;;;;;12.13;9.52;;;;;;;13.85;100.00;100310.28;6098518;23;20018;-79
2023/10/22 16:16:41;;;;;;;14.95;10.40;;;;;;;13.75;100.00;100309.75;6100627;23;20364;-79
2023/10/22 16:19:08;;;;;;;19.00;10.50;;;;;;;13.70;100.00;100299.00;6101125;23;20479;-79
2023/10/22 16:21:38;;;;;;;15.38;11.30;;;;;;;13.64;100.00;100304.97;6100479;23;20387;-79
2023/10/22 16:24:14;;;;;;;14.32;10.73;;;;;;;13.68;100.00;100330.72;6091614;23;20138;-79
2023/10/22 16:26:49;;;;;;;15.70;12.48;;;;;;;13.60;100.00;100329.00;6101853;23;20129;-79
2023/10/22 16:29:23;;;;;;;15.55;12.77;;;;;;;13.61;100.00;100337.72;6100895;23;20110;-80
2023/10/22 16:35:02;;;;;;;13.43;11.25;;;;;;;13.56;100.00;100319.84;6093236;23;20023;-79
2023/10/22 16:37:32;;;;;;;12.18;9.73;;;;;;;13.69;100.00;100339.44;6102241;23;20383;-79
2023/10/22 16:39:59;;;;;;;13.18;9.38;;;;;;;13.54;100.00;100332.38;6101623;23;20022;-79
2023/10/22 16:42:32;;;;;;;8.80;6.80;;;;;;;13.70;100.00;100362.91;6101413;23;20050;-79